createdAt,value
2017-08-17T00:03:54.825Z,5.60
2017-08-17T00:08:56.743Z,5.57
2017-08-17T00:13:58.682Z,6.30
2017-08-17T00:19:00.649Z,6.30
2017-08-17T00:24:02.636Z,6.03
2017-08-17T00:29:04.563Z,6.30
2017-08-17T00:34:06.515Z,5.70
2017-08-17T00:39:08.508Z,5.30
2017-08-17T00:44:11.223Z,5.10
2017-08-17T00:49:13.315Z,4.67
2017-08-17T00:54:16.033Z,5.47
2017-08-17T00:59:18.579Z,5.87
2017-08-17T01:04:21.235Z,5.23
2017-08-17T01:09:24.022Z,5.67
2017-08-17T01:14:26.947Z,5.70
2017-08-17T01:19:29.899Z,6.00
2017-08-17T01:24:32.662Z,5.90
2017-08-17T01:29:35.454Z,6.07
2017-08-17T01:34:37.968Z,6.83
2017-08-17T01:39:40.669Z,7.20
2017-08-17T01:44:43.735Z,6.77
2017-08-17T01:49:45.909Z,6.80
2017-08-17T01:54:47.990Z,7.63
2017-08-17T01:59:50.049Z,7.10
2017-08-17T02:04:52.060Z,7.83
2017-08-17T02:09:54.320Z,8.57
2017-08-17T02:14:56.621Z,8.40
2017-08-17T02:19:58.598Z,7.50
2017-08-17T02:25:00.556Z,8.20
2017-08-17T02:30:02.516Z,8.00
2017-08-17T02:35:04.477Z,7.90
2017-08-17T02:40:06.409Z,9.70
2017-08-17T02:45:08.407Z,9.70
2017-08-17T02:50:10.433Z,9.13
2017-08-17T02:55:12.411Z,9.50
2017-08-17T03:00:14.374Z,10.40
2017-08-17T03:05:16.344Z,10.70
2017-08-17T03:10:19.036Z,10.50
2017-08-17T03:15:21.007Z,10.70
2017-08-17T03:20:22.967Z,11.63
2017-08-17T03:25:25.085Z,13.37
2017-08-17T03:30:27.262Z,13.37
2017-08-17T03:35:29.258Z,12.90
2017-08-17T03:40:31.287Z,13.37
2017-08-17T03:45:33.234Z,13.00
2017-08-17T03:50:35.285Z,13.10
2017-08-17T03:55:38.128Z,13.50
2017-08-17T04:00:40.225Z,12.50
2017-08-17T04:05:42.491Z,13.93
2017-08-17T04:10:45.044Z,14.70
2017-08-17T04:15:47.033Z,14.27
2017-08-17T04:20:50.168Z,13.87
2017-08-17T04:25:53.131Z,15.63
2017-08-17T04:30:55.953Z,15.57
2017-08-17T04:35:57.896Z,15.70
2017-08-17T04:40:59.826Z,15.40
2017-08-17T04:46:01.865Z,15.20
2017-08-17T04:51:03.827Z,15.57
2017-08-17T04:56:30.089Z,14.53
2017-08-17T05:01:32.067Z,15.90
2017-08-17T05:06:34.016Z,15.20
2017-08-17T05:11:36.128Z,15.13
2017-08-17T05:16:38.108Z,15.57
2017-08-17T05:21:40.078Z,15.43
2017-08-17T05:26:47.770Z,16.33
2017-08-17T05:31:54.498Z,15.77
2017-08-17T05:36:56.963Z,15.43
2017-08-17T05:41:58.931Z,14.93
2017-08-17T05:47:02.373Z,14.27
2017-08-17T05:52:04.508Z,15.10
2017-08-17T05:57:07.349Z,12.90
2017-08-17T06:02:09.309Z,13.77
2017-08-17T06:07:11.311Z,12.10
2017-08-17T06:12:14.007Z,12.90
2017-08-17T06:17:15.955Z,11.30
2017-08-17T06:22:17.931Z,10.10
2017-08-17T06:27:19.925Z,10.80
2017-08-17T06:32:21.910Z,10.40
2017-08-17T06:37:26.131Z,10.40
2017-08-17T06:42:28.063Z,10.23
2017-08-17T06:47:30.007Z,9.47
2017-08-17T06:52:31.982Z,9.10
2017-08-17T06:57:33.912Z,8.50
2017-08-17T07:02:35.862Z,9.50
2017-08-17T07:07:37.839Z,8.97
2017-08-17T07:12:39.931Z,9.70
2017-08-17T07:17:42.474Z,9.50
2017-08-17T07:22:45.158Z,8.63
2017-08-17T07:27:47.110Z,9.50
2017-08-17T07:32:49.121Z,9.07
2017-08-17T07:37:51.167Z,8.40
2017-08-17T07:42:53.533Z,8.67
2017-08-17T07:47:56.245Z,7.60
2017-08-17T07:52:58.274Z,8.20
2017-08-17T07:58:00.260Z,7.50
2017-08-17T08:03:02.686Z,7.70
2017-08-17T08:08:04.707Z,8.23
2017-08-17T08:13:06.691Z,7.77
2017-08-17T08:18:08.663Z,8.03
2017-08-17T08:23:10.611Z,7.60
2017-08-17T08:28:12.544Z,7.97
2017-08-17T08:33:14.491Z,7.60
2017-08-17T08:38:16.433Z,7.97
2017-08-17T08:43:18.493Z,8.00
2017-08-17T08:48:20.481Z,7.50
2017-08-17T08:53:22.442Z,7.43
2017-08-17T08:58:24.387Z,6.83
2017-08-17T09:03:26.394Z,6.63
2017-08-17T09:08:28.856Z,7.33
2017-08-17T09:13:30.849Z,6.27
2017-08-17T09:18:32.764Z,5.50
2017-08-17T09:23:34.721Z,4.50
2017-08-17T09:28:36.643Z,4.93
2017-08-17T09:33:38.572Z,4.70
2017-08-17T09:38:40.524Z,4.90
2017-08-17T09:43:42.452Z,4.70
2017-08-17T09:48:44.400Z,4.70
2017-08-17T09:53:46.366Z,4.50
2017-08-17T09:58:48.337Z,3.37
2017-08-17T10:03:50.327Z,2.40
2017-08-17T10:08:52.268Z,2.70
2017-08-17T10:13:54.203Z,4.03
2017-08-17T10:18:56.893Z,3.60
2017-08-17T10:23:58.877Z,2.90
2017-08-17T10:29:00.944Z,2.93
2017-08-17T10:34:03.262Z,2.70
2017-08-17T10:39:05.579Z,2.67
2017-08-17T10:44:07.812Z,2.40
2017-08-17T10:49:23.223Z,3.67
2017-08-17T10:54:29.960Z,3.20
2017-08-17T10:59:33.981Z,3.80
2017-08-17T11:04:36.203Z,4.03
2017-08-17T11:09:38.192Z,3.23
2017-08-17T11:14:40.214Z,3.20
2017-08-17T11:19:42.226Z,2.93
2017-08-17T11:24:44.301Z,2.70
2017-08-17T11:29:46.316Z,2.70
2017-08-17T11:34:49.150Z,2.63
2017-08-17T11:39:51.205Z,2.60
2017-08-17T11:44:53.323Z,2.50
2017-08-17T11:49:55.279Z,3.17
2017-08-17T11:54:57.299Z,2.77
2017-08-17T11:59:59.310Z,3.00
2017-08-17T12:05:01.291Z,3.00
2017-08-17T12:10:04.020Z,3.20
2017-08-17T12:15:06.441Z,3.10
2017-08-17T12:20:08.896Z,3.70
2017-08-17T12:25:12.721Z,2.73
2017-08-17T12:30:23.467Z,3.23
2017-08-17T12:35:27.152Z,3.00
2017-08-17T12:40:29.269Z,3.53
2017-08-17T12:45:31.249Z,3.17
2017-08-17T12:50:33.205Z,3.60
2017-08-17T12:55:35.198Z,3.10
2017-08-17T13:00:37.275Z,3.80
2017-08-17T13:05:40.140Z,3.40
2017-08-17T13:10:42.348Z,3.63
2017-08-17T13:15:44.384Z,3.80
2017-08-17T13:20:46.424Z,4.77
2017-08-17T13:25:48.555Z,4.10
2017-08-17T13:30:50.592Z,3.30
2017-08-17T13:35:52.619Z,3.20
2017-08-17T13:40:55.387Z,3.87
2017-08-17T13:45:58.170Z,3.87
2017-08-17T13:51:00.118Z,3.40
2017-08-17T13:56:02.207Z,2.43
2017-08-17T14:01:09.711Z,2.80
2017-08-17T14:06:11.916Z,3.40
2017-08-17T14:11:14.618Z,3.10
2017-08-17T14:16:16.602Z,3.30
2017-08-17T14:21:18.811Z,3.40
2017-08-17T14:26:20.836Z,3.77
2017-08-17T14:31:22.892Z,3.73
2017-08-17T14:36:24.886Z,3.60
2017-08-17T14:41:26.910Z,3.70
2017-08-17T14:46:28.879Z,4.47
2017-08-17T14:51:30.928Z,4.27
2017-08-17T14:56:33.658Z,4.37
2017-08-17T15:01:35.707Z,4.03
2017-08-17T15:06:37.756Z,8.70
2017-08-17T15:11:39.683Z,4.40
2017-08-17T15:16:41.632Z,5.50
2017-08-17T15:21:43.602Z,6.03
2017-08-17T15:26:45.563Z,5.40
2017-08-17T15:31:47.539Z,6.20
2017-08-17T15:36:49.623Z,7.77
2017-08-17T15:41:51.592Z,9.30
2017-08-17T15:46:53.548Z,9.93
2017-08-17T15:51:55.562Z,10.70
2017-08-17T15:56:57.559Z,10.93
2017-08-17T16:01:59.525Z,11.63
2017-08-17T16:07:01.531Z,10.83
2017-08-17T16:12:03.536Z,10.70
2017-08-17T16:17:06.228Z,11.70
2017-08-17T16:22:08.235Z,10.87
2017-08-17T16:27:10.935Z,12.13
2017-08-17T16:32:13.061Z,12.43
2017-08-17T16:37:15.796Z,12.40
2017-08-17T16:42:18.579Z,12.20
2017-08-17T16:47:21.322Z,12.40
2017-08-17T16:52:23.438Z,12.70
2017-08-17T16:57:25.532Z,12.27
2017-08-17T17:02:27.462Z,12.93
2017-08-17T17:07:29.496Z,14.20
2017-08-17T17:12:33.058Z,13.00
2017-08-17T17:17:35.173Z,12.43
2017-08-17T17:22:37.921Z,14.70
2017-08-17T17:27:39.904Z,13.00
2017-08-17T17:32:42.606Z,12.40
2017-08-17T17:37:44.589Z,14.67
2017-08-17T17:42:46.540Z,14.00
2017-08-17T17:47:48.584Z,11.90
2017-08-17T17:52:50.522Z,12.27
2017-08-17T17:57:52.649Z,11.57
2017-08-17T18:02:54.676Z,12.47
2017-08-17T18:07:57.618Z,11.60
2017-08-17T18:12:59.654Z,11.90
2017-08-17T18:18:01.691Z,12.60
2017-08-17T18:23:03.662Z,11.47
2017-08-17T18:28:05.708Z,12.00
2017-08-17T18:33:07.708Z,12.40
2017-08-17T18:38:09.669Z,14.10
2017-08-17T18:43:11.665Z,10.70
2017-08-17T18:48:13.747Z,11.40
2017-08-17T18:53:16.000Z,10.63
2017-08-17T18:58:18.615Z,12.03
2017-08-17T19:03:22.874Z,10.10
2017-08-17T19:08:25.158Z,10.13
2017-08-17T19:13:28.810Z,9.53
2017-08-17T19:18:30.885Z,9.60
2017-08-17T19:23:32.952Z,9.27
2017-08-17T19:28:37.120Z,10.20
2017-08-17T19:33:42.999Z,8.90
2017-08-17T19:38:48.987Z,9.30
2017-08-17T19:43:54.980Z,8.97
2017-08-17T19:48:57.167Z,9.50
2017-08-17T19:53:59.732Z,8.70
2017-08-17T19:59:02.232Z,8.80
2017-08-17T20:04:05.352Z,8.50
2017-08-17T20:09:07.331Z,8.20
2017-08-17T20:14:09.260Z,7.27
2017-08-17T20:19:11.389Z,8.43
2017-08-17T20:24:13.483Z,8.37
2017-08-17T20:29:15.454Z,8.43
2017-08-17T20:34:17.438Z,8.87
2017-08-17T20:39:19.447Z,10.13
2017-08-17T20:44:21.540Z,9.17
2017-08-17T20:49:23.515Z,9.93
2017-08-17T20:54:25.761Z,10.00
2017-08-17T20:59:28.619Z,10.40
2017-08-17T21:04:31.584Z,10.27
2017-08-17T21:09:33.647Z,11.70
2017-08-17T21:14:35.688Z,11.93
2017-08-17T21:19:37.737Z,11.93
2017-08-17T21:24:39.711Z,12.67
2017-08-17T21:29:41.701Z,12.10
2017-08-17T21:34:43.631Z,12.13
2017-08-17T21:39:45.613Z,13.20
2017-08-17T21:44:47.765Z,14.47
2017-08-17T21:49:49.867Z,12.90
2017-08-17T21:54:52.588Z,13.73
2017-08-17T21:59:54.523Z,14.77
2017-08-17T22:04:56.554Z,12.77
2017-08-17T22:09:58.559Z,11.83
2017-08-17T22:15:00.549Z,12.23
2017-08-17T22:20:03.256Z,13.10
2017-08-17T22:25:05.277Z,12.53
2017-08-17T22:30:07.274Z,11.43
2017-08-17T22:35:09.263Z,11.63
2017-08-17T22:40:11.249Z,10.50
2017-08-17T22:45:13.227Z,10.47
2017-08-17T22:50:15.197Z,9.53
2017-08-17T22:55:17.888Z,9.73
2017-08-17T23:00:19.949Z,8.67
2017-08-17T23:05:22.023Z,8.13
2017-08-17T23:10:24.077Z,8.97
2017-08-17T23:15:26.154Z,8.60
2017-08-17T23:20:28.254Z,7.97
2017-08-17T23:25:30.296Z,8.83
2017-08-17T23:30:32.301Z,8.50
2017-08-17T23:35:35.041Z,8.50
2017-08-17T23:40:37.049Z,9.20
2017-08-17T23:45:39.037Z,8.07
2017-08-17T23:50:40.992Z,8.60
2017-08-17T23:55:42.939Z,8.30
